Time;durP1;ratioP1;P1;durP2;ratioP2;P2;SDS_P1;SDS_P2;PMS_P1;PMS_P2;Temp;Humidity;BMP_temperature;BMP_pressure;BME280_temperature;BME280_humidity;BME280_pressure;Samples;Min_cycle;Max_cycle;Signal;HPM_P1;HPM_P2
2022/07/04 00:00:58;;;;;;;9.38;7.90;;;20.70;99.90;;;;;;5016877;28;20303;-80
2022/07/04 00:03:50;;;;;;;9.13;8.23;;;20.70;99.90;;;;;;5006198;28;20852;-80
2022/07/04 00:06:39;;;;;;;10.68;8.27;;;20.70;99.90;;;;;;5014705;28;20711;-80
2022/07/04 00:09:27;;;;;;;10.05;8.35;;;20.60;99.90;;;;;;5015292;28;20218;-81
2022/07/04 00:12:16;;;;;;;9.40;8.40;;;20.60;99.90;;;;;;5017002;28;20734;-79
2022/07/04 00:15:08;;;;;;;9.27;8.13;;;20.60;99.90;;;;;;5017909;28;20233;-81
2022/07/04 00:18:00;;;;;;;9.20;8.13;;;20.60;99.90;;;;;;5002895;28;20225;-81
2022/07/04 00:20:48;;;;;;;9.68;8.05;;;20.60;99.90;;;;;;5013059;28;20742;-84
2022/07/04 00:23:40;;;;;;;9.35;7.97;;;20.50;99.90;;;;;;5012673;28;20664;-81
2022/07/04 00:26:29;;;;;;;9.15;8.30;;;20.60;99.90;;;;;;5005699;28;20228;-81
2022/07/04 00:29:18;;;;;;;10.02;8.80;;;20.50;99.90;;;;;;5001930;28;20711;-82
2022/07/04 00:32:09;;;;;;;13.25;8.73;;;20.40;99.90;;;;;;5001891;28;20884;-81
2022/07/04 00:34:58;;;;;;;11.27;8.88;;;20.40;99.90;;;;;;5013074;28;20229;-82
2022/07/04 00:37:46;;;;;;;10.20;9.10;;;20.40;99.90;;;;;;5016806;28;21005;-80
2022/07/04 00:40:35;;;;;;;10.82;9.02;;;20.30;99.90;;;;;;5018846;28;20216;-82
2022/07/04 00:43:25;;;;;;;9.80;8.80;;;20.20;99.90;;;;;;5002873;28;20708;-81
2022/07/04 00:46:13;;;;;;;10.63;9.23;;;20.20;99.90;;;;;;5001923;28;20224;-80
2022/07/04 00:49:05;;;;;;;11.48;9.15;;;20.20;99.90;;;;;;4843499;28;4893963;-80
2022/07/04 00:51:53;;;;;;;10.23;9.23;;;20.30;99.90;;;;;;5013474;28;20691;-82
2022/07/04 00:54:42;;;;;;;9.50;8.25;;;20.30;99.90;;;;;;5010492;28;20233;-80
2022/07/04 00:57:31;;;;;;;10.32;8.63;;;20.20;99.90;;;;;;4999934;28;20383;-80
2022/07/04 01:00:20;;;;;;;12.40;8.90;;;20.20;99.90;;;;;;5002860;28;20224;-80
2022/07/04 01:03:09;;;;;;;10.35;8.52;;;20.20;99.90;;;;;;5009742;28;20683;-78
2022/07/04 01:06:02;;;;;;;9.48;7.93;;;20.10;99.90;;;;;;5000765;28;20218;-78
2022/07/04 01:08:51;;;;;;;8.63;7.78;;;20.10;99.90;;;;;;5013571;28;20226;-81
2022/07/04 01:11:39;;;;;;;9.45;7.88;;;20.20;99.90;;;;;;5013941;28;20230;-80
2022/07/04 01:14:28;;;;;;;8.48;7.40;;;20.20;99.90;;;;;;5005771;28;20236;-80
2022/07/04 01:17:17;;;;;;;9.68;8.20;;;20.30;99.90;;;;;;5019554;28;20228;-79
2022/07/04 01:20:06;;;;;;;9.15;8.05;;;20.30;99.90;;;;;;5001204;28;20229;-81
2022/07/04 01:22:56;;;;;;;9.40;7.90;;;20.30;99.90;;;;;;5015176;28;20218;-79
2022/07/04 01:25:45;;;;;;;8.73;7.72;;;20.30;99.90;;;;;;5016800;28;20214;-78
2022/07/04 01:28:34;;;;;;;8.20;7.40;;;20.30;99.90;;;;;;4999095;28;20221;-78
2022/07/04 01:31:22;;;;;;;9.02;7.85;;;20.30;99.90;;;;;;5016558;28;20226;-77
2022/07/04 01:34:11;;;;;;;9.15;8.25;;;20.20;99.90;;;;;;5006569;28;20221;-78
2022/07/04 01:37:00;;;;;;;10.43;7.72;;;20.20;99.90;;;;;;5015862;28;20328;-79
2022/07/04 01:39:50;;;;;;;8.52;7.60;;;20.30;99.90;;;;;;5016776;28;20225;-79
2022/07/04 01:42:38;;;;;;;10.38;8.43;;;20.30;99.90;;;;;;5016422;28;20237;-78
2022/07/04 01:45:27;;;;;;;8.95;8.05;;;20.30;99.90;;;;;;5004788;28;20230;-80
2022/07/04 01:48:16;;;;;;;8.82;7.93;;;20.30;99.90;;;;;;5004204;28;20967;-79
2022/07/04 01:51:04;;;;;;;8.95;7.93;;;20.20;99.90;;;;;;5011483;28;20229;-80
2022/07/04 01:53:53;;;;;;;9.77;8.23;;;20.20;99.90;;;;;;5017873;28;20569;-79
2022/07/04 01:56:44;;;;;;;12.02;9.15;;;20.20;99.90;;;;;;5017377;28;20738;-79
2022/07/04 02:02:39;;;;;;;11.55;9.07;;;20.10;99.90;;;;;;5019202;28;20225;-81
2022/07/04 02:05:28;;;;;;;10.73;8.65;;;20.00;99.90;;;;;;5019753;28;20220;-80
2022/07/04 02:08:16;;;;;;;13.63;9.70;;;20.10;99.90;;;;;;5001272;28;20226;-81
2022/07/04 02:11:05;;;;;;;9.95;8.93;;;20.20;99.90;;;;;;5013640;28;20256;-81
2022/07/04 02:13:53;;;;;;;11.35;9.60;;;20.10;99.90;;;;;;5019965;28;20228;-86
2022/07/04 02:16:42;;;;;;;12.27;10.23;;;20.10;99.90;;;;;;5006095;28;20718;-82
2022/07/04 02:19:31;;;;;;;11.07;9.73;;;20.00;99.90;;;;;;5021141;28;20244;-81
2022/07/04 02:22:19;;;;;;;13.82;11.30;;;20.00;99.90;;;;;;5021566;28;20332;-83
2022/07/04 02:25:08;;;;;;;11.90;10.48;;;20.00;99.90;;;;;;5017213;28;20240;-82
2022/07/04 02:27:57;;;;;;;13.15;10.60;;;19.90;99.90;;;;;;5020890;28;20336;-80
2022/07/04 02:30:47;;;;;;;10.55;9.45;;;19.90;99.90;;;;;;5018077;28;20225;-81
2022/07/04 02:33:37;;;;;;;15.10;10.43;;;19.90;99.90;;;;;;5019801;28;20256;-81
2022/07/04 02:36:26;;;;;;;12.52;10.35;;;19.90;99.90;;;;;;5003057;28;20238;-81
2022/07/04 02:39:15;;;;;;;12.25;10.45;;;19.90;99.90;;;;;;5006102;28;20221;-81
2022/07/04 02:42:04;;;;;;;11.90;10.38;;;19.80;99.90;;;;;;5010333;28;20213;-83
2022/07/04 02:44:56;;;;;;;13.00;10.68;;;19.90;99.90;;;;;;5007247;28;20220;-82
2022/07/04 02:47:46;;;;;;;12.88;11.40;;;19.70;99.90;;;;;;5015275;28;20221;-82
2022/07/04 02:50:34;;;;;;;12.05;10.77;;;19.50;99.90;;;;;;5006589;28;20232;-81
2022/07/04 02:53:23;;;;;;;14.70;11.55;;;19.70;99.90;;;;;;5021633;28;20245;-81
2022/07/04 02:56:11;;;;;;;11.20;10.00;;;19.70;99.90;;;;;;5018293;28;20218;-81
2022/07/04 02:59:00;;;;;;;13.07;11.13;;;19.80;99.90;;;;;;5005730;28;20221;-81
2022/07/04 03:01:49;;;;;;;13.48;11.18;;;19.70;99.90;;;;;;5019684;28;20218;-80
2022/07/04 03:04:39;;;;;;;12.23;10.70;;;19.80;99.90;;;;;;5017424;28;20312;-81
2022/07/04 03:07:28;;;;;;;13.07;11.75;;;19.70;99.90;;;;;;5018518;28;20233;-80
2022/07/04 03:10:17;;;;;;;12.52;11.23;;;19.70;99.90;;;;;;5013862;28;20308;-81
2022/07/04 03:13:05;;;;;;;11.90;10.70;;;19.70;99.90;;;;;;5002637;28;20220;-81
2022/07/04 03:15:58;;;;;;;13.05;11.35;;;19.70;99.90;;;;;;5019050;28;20225;-81
2022/07/04 03:18:48;;;;;;;14.13;11.63;;;19.80;99.90;;;;;;5015663;28;20237;-81
2022/07/04 03:21:38;;;;;;;13.57;11.57;;;19.80;99.90;;;;;;5002543;28;20222;-80
2022/07/04 03:24:26;;;;;;;13.38;11.30;;;19.80;99.90;;;;;;5002781;28;20227;-82
2022/07/04 03:27:15;;;;;;;12.85;11.55;;;19.80;99.90;;;;;;5004064;28;20222;-82
2022/07/04 03:30:04;;;;;;;14.80;11.88;;;19.90;99.90;;;;;;5018044;28;20282;-81
2022/07/04 03:32:53;;;;;;;12.05;10.30;;;19.90;99.90;;;;;;5004539;28;20237;-82
2022/07/04 03:35:42;;;;;;;13.68;10.95;;;20.00;99.90;;;;;;5015531;28;20246;-83
2022/07/04 03:38:32;;;;;;;13.02;10.75;;;20.10;99.90;;;;;;5022025;28;20226;-84
2022/07/04 03:41:20;;;;;;;12.82;11.52;;;20.20;99.90;;;;;;5002772;28;20213;-84
2022/07/04 03:44:09;;;;;;;12.65;11.27;;;20.20;99.90;;;;;;5018231;28;20225;-84
2022/07/04 03:46:58;;;;;;;12.27;10.48;;;20.20;99.90;;;;;;5012244;28;20233;-81
2022/07/04 03:49:47;;;;;;;12.35;10.88;;;20.30;99.90;;;;;;5001250;28;20237;-84
2022/07/04 03:52:37;;;;;;;11.60;10.40;;;20.40;99.90;;;;;;5002261;28;20368;-86
2022/07/04 03:55:31;;;;;;;11.55;10.35;;;20.50;99.90;;;;;;5014743;28;20230;-84
2022/07/04 03:58:19;;;;;;;13.18;10.90;;;20.50;99.90;;;;;;5000553;28;20225;-83
2022/07/04 04:01:08;;;;;;;11.68;10.40;;;20.60;99.90;;;;;;4984664;28;20210;-84
2022/07/04 04:07:03;;;;;;;11.15;9.80;;;20.70;99.90;;;;;;4998707;28;20221;-86
2022/07/04 04:09:51;;;;;;;10.70;9.70;;;20.80;99.90;;;;;;5003893;28;20226;-87
2022/07/04 04:12:41;;;;;;;11.30;9.63;;;20.80;99.90;;;;;;4985773;28;20550;-86
2022/07/04 04:15:30;;;;;;;10.15;9.07;;;20.90;99.90;;;;;;4986643;28;20600;-84
2022/07/04 04:18:19;;;;;;;10.70;9.60;;;20.80;99.90;;;;;;5000611;28;20235;-84
2022/07/04 04:21:07;;;;;;;10.23;9.13;;;20.90;99.90;;;;;;4997893;28;22236;-85
2022/07/04 04:23:56;;;;;;;10.30;8.95;;;21.00;99.90;;;;;;4983153;28;20608;-83
2022/07/04 04:26:45;;;;;;;9.80;8.80;;;21.00;99.90;;;;;;4999970;28;20925;-84
2022/07/04 04:29:35;;;;;;;9.75;8.75;;;21.10;99.90;;;;;;4999295;28;20225;-83
2022/07/04 04:32:23;;;;;;;10.68;9.40;;;21.10;99.90;;;;;;5003833;28;20218;-83
2022/07/04 04:35:12;;;;;;;9.93;9.02;;;21.20;99.90;;;;;;4983124;28;20313;-83
2022/07/04 04:38:01;;;;;;;12.25;9.23;;;21.30;99.90;;;;;;5000394;28;20873;-80
2022/07/04 04:40:49;;;;;;;13.60;8.52;;;21.40;99.90;;;;;;4986936;28;20214;-81
2022/07/04 04:43:38;;;;;;;13.13;8.15;;;21.50;99.90;;;;;;4996306;28;20316;-80
2022/07/04 04:46:28;;;;;;;11.85;7.93;;;21.50;99.90;;;;;;4982417;28;20261;-83
2022/07/04 04:49:18;;;;;;;9.32;7.97;;;21.60;99.90;;;;;;5031108;28;20201;-86
2022/07/04 04:52:07;;;;;;;10.82;7.80;;;21.80;99.90;;;;;;5032544;28;20221;-85
2022/07/04 04:54:56;;;;;;;7.97;7.18;;;21.90;99.90;;;;;;5017212;28;20581;-83
2022/07/04 04:57:44;;;;;;;12.00;6.72;;;22.10;99.90;;;;;;5018616;28;20226;-78
2022/07/04 05:00:33;;;;;;;8.52;6.93;;;22.00;99.90;;;;;;5003117;28;20388;-87
2022/07/04 05:03:23;;;;;;;10.80;6.78;;;22.10;99.90;;;;;;5016385;28;20802;-75
2022/07/04 05:06:12;;;;;;;9.23;7.13;;;22.10;99.90;;;;;;5005103;28;20221;-78
2022/07/04 05:09:00;;;;;;;9.90;7.25;;;22.10;99.90;;;;;;5015373;28;20720;-74
2022/07/04 05:11:49;;;;;;;9.30;6.72;;;22.20;99.90;;;;;;5018667;28;20712;-77
2022/07/04 05:14:37;;;;;;;7.38;6.60;;;22.40;99.90;;;;;;5017803;28;20213;-77
2022/07/04 05:17:26;;;;;;;23.77;7.75;;;22.50;99.90;;;;;;5017676;28;20273;-76
2022/07/04 05:20:19;;;;;;;10.13;6.85;;;22.60;99.90;;;;;;5015180;28;20217;-79
2022/07/04 05:23:08;;;;;;;8.55;6.25;;;22.70;99.90;;;;;;5007200;28;20240;-81
2022/07/04 05:25:57;;;;;;;6.82;6.05;;;22.70;99.90;;;;;;5019290;28;20230;-82
2022/07/04 05:28:46;;;;;;;6.88;5.65;;;22.70;99.90;;;;;;5018465;28;20221;-85
2022/07/04 05:31:35;;;;;;;7.57;6.57;;;22.80;99.90;;;;;;5017135;28;20765;-77
2022/07/04 05:34:23;;;;;;;7.75;6.30;;;22.90;99.90;;;;;;5019978;28;20297;-83
2022/07/04 05:37:13;;;;;;;8.25;5.80;;;22.90;99.90;;;;;;5017763;28;20232;-80
2022/07/04 05:40:02;;;;;;;6.95;6.25;;;23.00;99.90;;;;;;5019034;28;20242;-80
2022/07/04 05:42:50;;;;;;;10.50;5.93;;;23.20;99.90;;;;;;5019794;28;20258;-78
2022/07/04 05:45:39;;;;;;;8.23;7.25;;;23.20;99.90;;;;;;5017850;28;20262;-78
2022/07/04 05:48:28;;;;;;;8.38;7.03;;;23.30;99.90;;;;;;5022581;28;20218;-80
2022/07/04 05:51:16;;;;;;;12.35;8.93;;;23.40;99.90;;;;;;5015768;28;20233;-79
2022/07/04 05:54:07;;;;;;;10.50;8.23;;;23.40;99.90;;;;;;5002961;28;20229;-79
2022/07/04 05:56:55;;;;;;;9.10;7.65;;;23.60;99.90;;;;;;5000854;28;20229;-80
2022/07/04 05:59:44;;;;;;;11.40;10.20;;;23.50;99.90;;;;;;5032551;28;20678;-78
2022/07/04 06:02:33;;;;;;;12.07;10.15;;;23.50;99.90;;;;;;5018213;28;20570;-74
2022/07/04 06:05:22;;;;;;;9.90;8.90;;;23.40;99.90;;;;;;5007022;28;20281;-81
2022/07/04 06:08:10;;;;;;;11.50;8.60;;;23.50;99.90;;;;;;5017388;28;20226;-81
2022/07/04 06:11:00;;;;;;;8.50;7.57;;;23.40;99.90;;;;;;5018450;28;20225;-81
2022/07/04 06:13:49;;;;;;;8.85;7.55;;;23.50;99.90;;;;;;5014325;28;20588;-82
2022/07/04 06:16:38;;;;;;;11.65;7.20;;;23.50;99.90;;;;;;5018437;28;20211;-82
2022/07/04 06:19:27;;;;;;;8.77;7.05;;;23.60;99.90;;;;;;5009208;28;20230;-81
2022/07/04 06:22:16;;;;;;;18.50;8.07;;;23.70;99.90;;;;;;5022167;28;20219;-82
2022/07/04 06:25:12;;;;;;;8.23;6.82;;;23.80;99.90;;;;;;5018358;28;20229;-81
2022/07/04 06:28:02;;;;;;;9.10;7.43;;;24.10;99.90;;;;;;5002654;28;20226;-80
2022/07/04 06:30:51;;;;;;;10.02;6.53;;;25.20;99.90;;;;;;5019064;28;20233;-80
2022/07/04 06:36:42;;;;;;;12.80;5.50;;;25.70;99.90;;;;;;5014741;28;20565;-82
2022/07/04 06:39:30;;;;;;;5.65;4.88;;;25.70;99.90;;;;;;5009490;28;20548;-82
2022/07/04 06:42:22;;;;;;;6.32;4.68;;;26.20;99.90;;;;;;5017846;28;20307;-80
2022/07/04 06:45:13;;;;;;;7.15;4.35;;;27.40;99.90;;;;;;5015088;28;20221;-78
2022/07/04 06:48:02;;;;;;;10.35;5.28;;;27.20;99.90;;;;;;5019114;28;20229;-82
2022/07/04 06:50:54;;;;;;;4.72;3.90;;;26.80;99.90;;;;;;5015532;28;20232;-81
2022/07/04 06:53:45;;;;;;;5.25;4.38;;;26.90;99.90;;;;;;5013566;28;20225;-76
2022/07/04 06:56:34;;;;;;;7.72;4.30;;;26.60;99.90;;;;;;5016350;28;20363;-84
2022/07/04 06:59:22;;;;;;;5.07;4.35;;;26.40;99.90;;;;;;5019242;28;20233;-84
2022/07/04 07:02:12;;;;;;;5.43;4.57;;;26.10;99.90;;;;;;5016968;28;20226;-81
2022/07/04 07:05:01;;;;;;;5.70;4.20;;;26.20;99.90;;;;;;5023641;28;20218;-81
2022/07/04 07:07:55;;;;;;;5.35;4.30;;;26.10;99.90;;;;;;5018175;28;20248;-85
2022/07/04 07:10:44;;;;;;;5.82;4.13;;;26.00;99.90;;;;;;5004075;28;20217;-79
2022/07/04 07:13:36;;;;;;;5.00;4.53;;;26.20;99.90;;;;;;5015389;28;20221;-72
2022/07/04 07:16:25;;;;;;;5.25;4.75;;;26.60;99.90;;;;;;5005201;28;20225;-73
2022/07/04 07:19:15;;;;;;;7.05;4.68;;;26.20;99.90;;;;;;5002195;28;20260;-75
2022/07/04 07:22:04;;;;;;;5.13;4.25;;;25.90;99.90;;;;;;5015317;28;20229;-74
2022/07/04 07:24:52;;;;;;;5.15;3.70;;;25.90;99.90;;;;;;5014967;28;20237;-74
2022/07/04 07:27:41;;;;;;;7.05;3.85;;;26.20;99.90;;;;;;5004411;28;20222;-73
2022/07/04 07:30:30;;;;;;;5.03;3.67;;;26.20;99.90;;;;;;5008452;28;20244;-74
2022/07/04 07:33:19;;;;;;;4.95;3.90;;;26.60;99.90;;;;;;5008031;28;20223;-74
2022/07/04 07:36:09;;;;;;;4.53;3.90;;;27.00;99.90;;;;;;5002349;28;20248;-74
2022/07/04 07:38:57;;;;;;;6.97;3.50;;;27.30;99.90;;;;;;5013542;28;20230;-74
2022/07/04 07:41:49;;;;;;;5.32;3.95;;;27.70;99.90;;;;;;5015613;28;20278;-72
2022/07/04 07:44:38;;;;;;;6.28;3.85;;;28.20;99.90;;;;;;5012653;28;20971;-67
2022/07/04 07:47:26;;;;;;;4.57;3.83;;;28.30;99.90;;;;;;5011392;28;20237;-73
2022/07/04 07:50:15;;;;;;;4.38;3.38;;;27.80;99.90;;;;;;5002285;28;20829;-72
2022/07/04 07:53:05;;;;;;;10.52;3.92;;;28.30;99.90;;;;;;4997327;28;20585;-73
2022/07/04 07:55:54;;;;;;;4.75;3.67;;;28.70;99.90;;;;;;5005366;28;20236;-74
2022/07/04 07:58:42;;;;;;;6.18;3.75;;;27.80;99.90;;;;;;5014355;28;20315;-74
2022/07/04 08:01:31;;;;;;;3.58;3.28;;;27.50;99.90;;;;;;5011625;28;20729;-76
2022/07/04 08:04:37;;;;;;;7.10;3.40;;;27.70;99.90;;;;;;5013671;28;20223;-79
2022/07/04 08:07:26;;;;;;;3.70;3.40;;;28.90;99.90;;;;;;5008587;28;20272;-74
2022/07/04 08:10:20;;;;;;;3.67;3.38;;;30.00;95.80;;;;;;5011907;28;20275;-75
2022/07/04 08:13:08;;;;;;;3.33;3.03;;;30.70;93.00;;;;;;5013257;28;20232;-77
2022/07/04 08:15:57;;;;;;;4.13;3.10;;;30.70;85.00;;;;;;5002288;28;20231;-78
2022/07/04 08:18:45;;;;;;;4.18;3.63;;;31.00;88.50;;;;;;4999408;28;20227;-73
2022/07/04 08:21:34;;;;;;;7.88;4.05;;;30.30;92.10;;;;;;4991983;28;20259;-77
2022/07/04 08:24:47;;;;;;;4.97;3.67;;;29.30;96.60;;;;;;5015613;28;20644;-73
2022/07/04 08:27:41;;;;;;;7.55;3.35;;;29.00;98.90;;;;;;5013758;28;20224;-76
2022/07/04 08:30:33;;;;;;;3.92;3.53;;;30.20;94.10;;;;;;5012468;28;20762;-76
2022/07/04 08:33:21;;;;;;;4.15;2.60;;;31.10;90.60;;;;;;5015222;28;20239;-76
2022/07/04 08:36:10;;;;;;;3.45;2.70;;;31.40;81.00;;;;;;5010534;28;20220;-75
2022/07/04 08:38:59;;;;;;;5.32;3.70;;;31.80;79.30;;;;;;5012543;28;20371;-75
2022/07/04 08:41:52;;;;;;;3.97;3.33;;;32.00;77.60;;;;;;5011642;28;20252;-74
2022/07/04 08:44:48;;;;;;;5.68;2.88;;;32.80;76.60;;;;;;5012843;28;21041;-73
2022/07/04 08:47:38;;;;;;;4.45;2.85;;;33.10;74.00;;;;;;4999831;28;20225;-70
2022/07/04 08:50:31;;;;;;;2.28;2.08;;;33.60;70.50;;;;;;5004312;28;20221;-73
2022/07/04 08:53:25;;;;;;;5.32;2.50;;;33.60;65.30;;;;;;4997187;28;20711;-74
2022/07/04 08:59:20;;;;;;;2.28;1.80;;;33.40;65.40;;;;;;4996354;28;20729;-75
2022/07/04 09:02:15;;;;;;;2.47;2.28;;;32.00;65.10;;;;;;5014676;28;20271;-75
2022/07/04 09:05:05;;;;;;;2.30;2.00;;;31.50;67.30;;;;;;5019074;28;20331;-75
2022/07/04 09:07:58;;;;;;;3.85;2.42;;;33.00;66.90;;;;;;5014947;28;20221;-75
2022/07/04 09:10:47;;;;;;;2.90;2.50;;;32.30;65.30;;;;;;5020892;28;20228;-75
2022/07/04 09:13:36;;;;;;;3.55;2.10;;;31.60;67.50;;;;;;5012261;28;20253;-75
2022/07/04 09:16:24;;;;;;;3.25;2.60;;;31.60;70.40;;;;;;5016840;28;20234;-76
2022/07/04 09:19:23;;;;;;;3.28;2.50;;;31.90;68.70;;;;;;5001799;28;20236;-75
2022/07/04 09:22:11;;;;;;;3.17;2.28;;;33.40;67.90;;;;;;5003956;28;20213;-76
2022/07/04 09:25:00;;;;;;;6.05;2.05;;;33.70;62.60;;;;;;5013216;28;20222;-76
2022/07/04 09:27:51;;;;;;;2.53;1.50;;;33.50;61.10;;;;;;5012174;28;20213;-75
2022/07/04 09:30:48;;;;;;;2.20;1.63;;;33.50;58.30;;;;;;5014364;28;20359;-75
2022/07/04 09:33:50;;;;;;;4.85;2.58;;;31.70;59.70;;;;;;5016482;28;20243;-74
2022/07/04 09:36:44;;;;;;;3.65;2.00;;;32.50;65.10;;;;;;5017677;28;21164;-74
2022/07/04 09:39:38;;;;;;;3.70;1.98;;;33.80;59.00;;;;;;5010791;28;20217;-78
2022/07/04 09:42:26;;;;;;;3.55;1.88;;;34.90;58.40;;;;;;5005334;28;20236;-74
2022/07/04 09:45:15;;;;;;;4.15;1.80;;;35.10;55.70;;;;;;5018375;28;20304;-75
2022/07/04 09:48:04;;;;;;;3.85;2.03;;;35.60;56.70;;;;;;5018788;28;20240;-76
2022/07/04 09:50:53;;;;;;;2.10;1.90;;;36.30;54.50;;;;;;5013191;28;20945;-77
2022/07/04 09:53:47;;;;;;;4.18;1.73;;;37.20;52.00;;;;;;5012930;28;20225;-76
2022/07/04 09:56:42;;;;;;;5.13;2.30;;;37.80;52.70;;;;;;5014427;28;20217;-76
2022/07/04 09:59:32;;;;;;;3.20;1.90;;;37.30;53.60;;;;;;5015447;28;20225;-76
2022/07/04 10:02:21;;;;;;;3.55;2.00;;;37.30;50.50;;;;;;5014423;28;20606;-76
2022/07/04 10:05:13;;;;;;;2.60;1.90;;;38.10;51.70;;;;;;5018860;28;20221;-75
2022/07/04 10:08:05;;;;;;;2.83;2.08;;;36.60;53.50;;;;;;5014975;28;20244;-75
2022/07/04 10:10:59;;;;;;;2.58;1.55;;;37.00;52.20;;;;;;5018155;28;20860;-74
2022/07/04 10:13:51;;;;;;;3.15;1.80;;;37.00;50.60;;;;;;5021181;28;20304;-75
2022/07/04 10:16:40;;;;;;;2.30;1.80;;;36.60;53.00;;;;;;5018461;28;20240;-75
2022/07/04 10:19:29;;;;;;;2.83;1.95;;;36.50;52.60;;;;;;5019719;28;20220;-74
2022/07/04 10:22:19;;;;;;;2.55;2.00;;;35.00;53.80;;;;;;5021632;28;20568;-75
2022/07/04 10:25:09;;;;;;;4.20;2.00;;;35.50;56.30;;;;;;5013771;28;20296;-76
2022/07/04 10:27:59;;;;;;;2.35;1.77;;;36.30;54.60;;;;;;5012979;28;20228;-75
2022/07/04 10:30:52;;;;;;;4.07;2.00;;;36.60;53.00;;;;;;5020234;28;20237;-77
2022/07/04 10:33:41;;;;;;;5.93;1.92;;;37.10;53.10;;;;;;5022998;28;20213;-78
2022/07/04 10:36:30;;;;;;;2.45;1.90;;;36.90;51.50;;;;;;5019520;28;20293;-77
2022/07/04 10:39:24;;;;;;;3.92;1.90;;;36.80;52.90;;;;;;5020677;28;20240;-76
2022/07/04 10:42:24;;;;;;;3.05;1.88;;;37.10;51.80;;;;;;5019472;28;20217;-75
2022/07/04 10:45:32;;;;;;;1.92;1.83;;;36.90;50.50;;;;;;5010885;28;20615;-76
2022/07/04 10:48:21;;;;;;;5.32;1.90;;;36.90;52.20;;;;;;5008503;28;20331;-76
2022/07/04 10:51:10;;;;;;;3.05;2.03;;;37.00;52.30;;;;;;5010642;28;20327;-76
2022/07/04 10:54:00;;;;;;;3.78;1.90;;;36.40;50.10;;;;;;5019789;28;20221;-76
2022/07/04 10:56:57;;;;;;;2.78;1.95;;;36.00;51.80;;;;;;5021963;28;20216;-77
2022/07/04 11:00:05;;;;;;;4.75;1.90;;;35.60;52.50;;;;;;5009231;28;20228;-77
2022/07/04 11:03:19;;;;;;;3.50;2.00;;;36.00;54.30;;;;;;5015335;28;20228;-76
2022/07/04 11:06:52;;;;;;;4.63;1.98;;;36.20;51.90;;;;;;5016919;28;20299;-76
2022/07/04 11:09:40;;;;;;;2.78;2.10;;;36.90;53.30;;;;;;5003777;28;20217;-74
2022/07/04 11:12:29;;;;;;;4.78;2.33;;;36.80;51.70;;;;;;5022761;28;20232;-75
2022/07/04 11:15:18;;;;;;;2.78;1.88;;;36.90;52.50;;;;;;5008407;28;20241;-75
2022/07/04 11:18:10;;;;;;;2.85;2.00;;;36.20;51.90;;;;;;5009125;28;20239;-76
2022/07/04 11:20:58;;;;;;;4.25;2.40;;;35.80;53.90;;;;;;5010360;28;20252;-76
2022/07/04 11:23:51;;;;;;;4.72;2.38;;;34.90;54.00;;;;;;5012762;28;20224;-74
2022/07/04 11:26:40;;;;;;;2.42;2.03;;;34.20;55.50;;;;;;5024443;28;20228;-76
2022/07/04 11:29:29;;;;;;;4.25;2.40;;;34.00;57.00;;;;;;5018558;28;20226;-76
2022/07/04 11:32:18;;;;;;;2.35;2.13;;;34.10;56.70;;;;;;5018731;28;20648;-77
2022/07/04 11:35:09;;;;;;;4.55;2.22;;;34.10;56.80;;;;;;5015928;28;20252;-77
2022/07/04 11:37:58;;;;;;;2.45;2.25;;;34.10;56.70;;;;;;5017277;28;20347;-76
2022/07/04 11:47:09;;;;;;;4.80;2.33;;;34.10;56.70;;;;;;5027456;28;20220;-75
2022/07/04 11:50:00;;;;;;;2.50;2.20;;;33.80;58.30;;;;;;5025756;28;20259;-77
2022/07/04 11:52:53;;;;;;;3.55;2.20;;;33.60;59.50;;;;;;5010895;28;20235;-74
2022/07/04 11:56:02;;;;;;;2.53;2.08;;;33.30;58.40;;;;;;5017045;28;20721;-74
2022/07/04 11:58:51;;;;;;;8.10;2.38;;;32.50;59.10;;;;;;5017069;28;20240;-71
2022/07/04 12:01:39;;;;;;;3.22;2.63;;;32.10;59.10;;;;;;5019362;28;20232;-71
2022/07/04 12:04:28;;;;;;;4.32;1.95;;;31.70;61.30;;;;;;5006875;28;20226;-75
2022/07/04 12:07:19;;;;;;;2.90;2.53;;;31.40;61.60;;;;;;5008182;28;20224;-73
2022/07/04 12:10:12;;;;;;;6.97;2.33;;;31.70;63.40;;;;;;5015359;28;20226;-74
2022/07/04 12:13:06;;;;;;;7.80;2.42;;;33.00;62.50;;;;;;5034354;28;20258;-73
2022/07/04 12:15:56;;;;;;;2.72;2.10;;;33.60;60.80;;;;;;5025331;28;20226;-73
2022/07/04 12:18:45;;;;;;;2.50;2.30;;;33.30;59.10;;;;;;5019915;28;20587;-74
2022/07/04 12:21:33;;;;;;;2.83;2.58;;;33.20;60.60;;;;;;5022955;28;20240;-74
2022/07/04 12:24:22;;;;;;;3.45;2.10;;;33.10;59.20;;;;;;5007079;28;20232;-73
2022/07/04 12:27:21;;;;;;;3.03;2.30;;;32.80;58.30;;;;;;5012763;28;20253;-71
2022/07/04 12:30:11;;;;;;;2.55;2.17;;;32.30;60.00;;;;;;5020060;28;20221;-75
2022/07/04 12:33:00;;;;;;;3.42;2.05;;;31.80;59.80;;;;;;5021966;28;20600;-73
2022/07/04 12:35:50;;;;;;;3.30;2.25;;;31.90;62.50;;;;;;5012996;28;20800;-72
2022/07/04 12:38:41;;;;;;;5.00;2.33;;;31.60;59.90;;;;;;5018738;28;20220;-70
2022/07/04 12:41:32;;;;;;;4.22;2.42;;;31.50;62.80;;;;;;5021152;28;20229;-72
2022/07/04 12:44:22;;;;;;;2.75;2.53;;;31.40;62.60;;;;;;5006484;28;20221;-74
2022/07/04 12:47:12;;;;;;;3.10;2.45;;;31.40;65.10;;;;;;5004216;28;20316;-73
2022/07/04 12:50:09;;;;;;;5.63;2.65;;;31.40;65.80;;;;;;5003725;28;20221;-74
2022/07/04 12:53:01;;;;;;;3.03;2.67;;;31.20;65.10;;;;;;5002003;28;20578;-75
2022/07/04 12:55:51;;;;;;;5.95;2.58;;;30.90;65.00;;;;;;4990242;28;20387;-74
2022/07/04 12:58:39;;;;;;;4.22;2.55;;;30.40;64.10;;;;;;5005952;28;20320;-74
2022/07/04 13:01:30;;;;;;;3.55;2.92;;;30.00;65.10;;;;;;5003251;28;20232;-75
2022/07/04 13:04:18;;;;;;;2.50;2.30;;;30.10;68.20;;;;;;5008031;28;20288;-76
2022/07/04 13:07:15;;;;;;;3.22;2.53;;;30.20;69.40;;;;;;5004634;28;20561;-75
2022/07/04 13:10:04;;;;;;;2.83;2.33;;;30.30;68.90;;;;;;5001331;28;20233;-76
2022/07/04 13:12:53;;;;;;;5.10;3.00;;;30.30;69.50;;;;;;5004467;28;20220;-74
2022/07/04 13:15:41;;;;;;;3.95;2.70;;;30.30;69.30;;;;;;5000863;28;20363;-74
2022/07/04 13:18:31;;;;;;;4.63;2.90;;;30.20;70.10;;;;;;5003571;28;20253;-76
2022/07/04 13:21:20;;;;;;;2.72;2.20;;;30.20;67.70;;;;;;4989508;28;20222;-75
2022/07/04 13:24:09;;;;;;;4.05;2.67;;;30.30;66.50;;;;;;5002990;28;20740;-73
2022/07/04 13:26:57;;;;;;;3.92;2.67;;;30.20;67.50;;;;;;5005570;28;20537;-73
2022/07/04 13:29:46;;;;;;;6.97;2.30;;;29.90;66.30;;;;;;5001089;28;20240;-76
2022/07/04 13:32:35;;;;;;;3.30;2.95;;;29.90;68.40;;;;;;5002991;28;20225;-74
2022/07/04 13:35:26;;;;;;;2.42;2.22;;;29.70;66.30;;;;;;5004497;28;20229;-76
2022/07/04 13:38:15;;;;;;;3.20;2.67;;;29.60;66.10;;;;;;4991079;28;20778;-74
2022/07/04 13:41:04;;;;;;;5.60;2.40;;;29.60;69.00;;;;;;5008605;28;20241;-74
2022/07/04 13:43:56;;;;;;;3.60;2.78;;;29.60;69.90;;;;;;5007353;28;20232;-74
2022/07/04 13:46:45;;;;;;;2.92;2.55;;;29.40;69.20;;;;;;5007752;28;20229;-74
2022/07/04 13:49:33;;;;;;;3.00;2.70;;;29.50;71.10;;;;;;5014314;28;20230;-75
2022/07/04 13:52:27;;;;;;;3.10;2.80;;;29.30;67.80;;;;;;5016170;28;20573;-73
2022/07/04 13:55:16;;;;;;;2.92;2.63;;;28.90;68.10;;;;;;4985871;28;20221;-73
2022/07/04 13:58:05;;;;;;;3.45;2.60;;;28.90;68.90;;;;;;5001013;28;20214;-74
2022/07/04 14:00:54;;;;;;;6.47;2.88;;;28.70;69.00;;;;;;4987246;28;20230;-73
2022/07/04 14:03:43;;;;;;;6.05;2.90;;;28.80;73.10;;;;;;5002558;28;20241;-73
2022/07/04 14:06:33;;;;;;;2.75;2.50;;;28.90;70.80;;;;;;5008167;28;20222;-72
2022/07/04 14:09:23;;;;;;;2.63;2.30;;;28.70;69.00;;;;;;5006785;28;20221;-74
2022/07/04 14:12:12;;;;;;;3.70;2.70;;;28.60;69.80;;;;;;5000439;28;20222;-72
2022/07/04 14:15:00;;;;;;;3.95;2.85;;;28.70;70.40;;;;;;4998506;28;20226;-75
2022/07/04 14:17:52;;;;;;;2.83;2.63;;;28.70;69.80;;;;;;4997735;28;20730;-74
2022/07/04 14:20:41;;;;;;;3.53;2.88;;;28.70;69.00;;;;;;4985271;28;20890;-73
2022/07/04 14:23:41;;;;;;;3.22;2.55;;;28.80;70.20;;;;;;4992994;28;20235;-72
2022/07/04 14:26:31;;;;;;;7.18;2.80;;;28.90;70.20;;;;;;5001590;28;20231;-73
2022/07/04 14:29:20;;;;;;;3.60;2.67;;;28.90;70.30;;;;;;5003068;28;20337;-74
2022/07/04 14:32:09;;;;;;;3.88;2.35;;;28.70;67.00;;;;;;4984039;28;20222;-74
2022/07/04 14:34:57;;;;;;;2.92;2.70;;;28.70;68.80;;;;;;4999054;28;20237;-73
2022/07/04 14:37:46;;;;;;;2.92;2.60;;;28.80;67.50;;;;;;4970159;28;20245;-74
2022/07/04 14:40:35;;;;;;;3.20;2.60;;;28.80;67.00;;;;;;5006069;28;20751;-73
2022/07/04 14:43:28;;;;;;;3.13;2.90;;;28.70;65.40;;;;;;4992879;28;20581;-71
2022/07/04 14:46:17;;;;;;;4.53;2.92;;;28.60;65.70;;;;;;4996508;28;20223;-73
2022/07/04 14:49:06;;;;;;;4.30;2.78;;;28.60;67.10;;;;;;5018360;28;20232;-73
2022/07/04 14:51:57;;;;;;;4.38;3.60;;;28.70;69.10;;;;;;4995542;28;20256;-74
2022/07/04 14:54:48;;;;;;;4.30;2.75;;;28.60;66.80;;;;;;5028801;28;20299;-73
2022/07/04 14:57:37;;;;;;;3.97;3.10;;;28.40;67.50;;;;;;5003637;28;20308;-73
2022/07/04 15:00:27;;;;;;;3.05;2.85;;;28.50;68.20;;;;;;5019114;28;20248;-74